createdAt,value
2023-05-06T00:00:59.330Z,21.84
2023-05-06T00:04:05.462Z,21.87
2023-05-06T00:07:09.831Z,21.85
2023-05-06T00:10:12.686Z,21.84
2023-05-06T00:13:16.196Z,21.84
2023-05-06T00:16:19.166Z,21.81
2023-05-06T00:19:22.161Z,21.74
2023-05-06T00:22:26.412Z,21.83
2023-05-06T00:25:29.159Z,21.81
2023-05-06T00:28:31.960Z,21.75
2023-05-06T00:31:34.810Z,21.80
2023-05-06T00:34:37.666Z,21.76
2023-05-06T00:37:41.831Z,21.81
2023-05-06T00:40:44.553Z,21.74
2023-05-06T00:43:47.352Z,21.77
2023-05-06T00:46:50.165Z,21.74
2023-05-06T00:49:52.926Z,21.69
2023-05-06T00:52:58.098Z,21.66
2023-05-06T00:56:00.858Z,21.61
2023-05-06T00:59:03.653Z,21.66
2023-05-06T01:02:06.411Z,21.64
2023-05-06T01:05:10.376Z,21.65
2023-05-06T01:08:18.795Z,21.68
2023-05-06T01:11:25.669Z,21.66
2023-05-06T01:14:31.721Z,21.64
2023-05-06T01:17:35.355Z,21.59
2023-05-06T01:20:38.381Z,21.62
2023-05-06T01:23:57.966Z,21.55
2023-05-06T01:27:02.632Z,21.61
2023-05-06T01:30:06.457Z,21.58
2023-05-06T01:33:12.763Z,21.54
2023-05-06T01:36:17.407Z,21.54
2023-05-06T01:39:25.753Z,21.56
2023-05-06T01:42:30.799Z,21.57
2023-05-06T01:45:35.205Z,21.57
2023-05-06T01:48:38.716Z,21.55
2023-05-06T01:51:41.642Z,21.53
2023-05-06T01:54:44.419Z,21.52
2023-05-06T01:57:48.532Z,21.53
2023-05-06T02:00:51.305Z,21.51
2023-05-06T02:03:54.329Z,21.52
2023-05-06T02:06:57.253Z,21.54
2023-05-06T02:10:00.078Z,21.49
2023-05-06T02:13:04.303Z,21.49
2023-05-06T02:16:07.367Z,21.48
2023-05-06T02:19:11.032Z,21.48
2023-05-06T02:22:13.872Z,21.43
2023-05-06T02:25:16.676Z,21.40
2023-05-06T02:28:20.856Z,21.39
2023-05-06T02:31:23.805Z,21.50
2023-05-06T02:34:26.910Z,21.46
2023-05-06T02:37:29.755Z,21.44
2023-05-06T02:40:32.552Z,21.50
2023-05-06T02:43:36.700Z,21.47
2023-05-06T02:46:39.435Z,21.41
2023-05-06T02:49:42.264Z,21.43
2023-05-06T02:52:44.977Z,21.45
2023-05-06T02:55:47.718Z,21.45
2023-05-06T02:58:51.851Z,21.40
2023-05-06T03:01:54.607Z,21.39
2023-05-06T03:04:57.354Z,21.43
2023-05-06T03:08:00.137Z,21.47
2023-05-06T03:11:02.969Z,21.47
2023-05-06T03:14:07.632Z,21.47
2023-05-06T03:17:10.388Z,21.47
2023-05-06T03:20:13.764Z,21.55
2023-05-06T03:23:16.831Z,21.50
2023-05-06T03:26:19.574Z,21.48
2023-05-06T03:29:23.679Z,21.51
2023-05-06T03:32:26.449Z,21.51
2023-05-06T03:35:29.329Z,21.45
2023-05-06T03:38:32.159Z,21.55
2023-05-06T03:41:34.990Z,21.46
2023-05-06T03:44:39.068Z,21.50
2023-05-06T03:47:41.892Z,21.57
2023-05-06T03:50:44.815Z,21.61
2023-05-06T03:53:47.618Z,21.56
2023-05-06T03:56:50.407Z,21.56
2023-05-06T03:59:54.681Z,21.57
2023-05-06T04:02:57.466Z,21.51
2023-05-06T04:06:00.327Z,21.63
2023-05-06T04:09:03.112Z,21.65
2023-05-06T04:12:06.157Z,21.70
2023-05-06T04:15:11.172Z,21.68
2023-05-06T04:18:19.121Z,21.65
2023-05-06T04:21:21.988Z,21.62
2023-05-06T04:24:24.777Z,21.63
2023-05-06T04:27:29.810Z,21.67
2023-05-06T04:30:34.214Z,21.68
2023-05-06T04:33:37.010Z,21.73
2023-05-06T04:36:40.685Z,21.73
2023-05-06T04:39:47.468Z,21.75
2023-05-06T04:42:50.765Z,21.69
2023-05-06T04:45:55.352Z,21.80
2023-05-06T04:48:58.395Z,21.79
2023-05-06T04:52:01.160Z,21.78
2023-05-06T04:55:04.218Z,21.67
2023-05-06T04:58:07.624Z,21.74
2023-05-06T05:01:12.086Z,21.80
2023-05-06T05:04:14.859Z,21.81
2023-05-06T05:07:17.671Z,21.82
2023-05-06T05:10:20.551Z,21.80
2023-05-06T05:13:23.297Z,21.73
2023-05-06T05:16:27.624Z,21.85
2023-05-06T05:19:30.413Z,21.82
2023-05-06T05:22:33.282Z,21.76
2023-05-06T05:25:35.983Z,21.77
2023-05-06T05:28:38.807Z,21.77
2023-05-06T05:31:43.082Z,21.88
2023-05-06T05:34:45.955Z,21.87
2023-05-06T05:37:49.320Z,21.88
2023-05-06T05:40:52.196Z,21.92
2023-05-06T05:43:54.945Z,21.99
2023-05-06T05:46:59.051Z,22.01
2023-05-06T05:50:01.774Z,21.93
2023-05-06T05:53:05.645Z,22.04
2023-05-06T05:56:08.629Z,21.96
2023-05-06T05:59:11.376Z,22.00
2023-05-06T06:02:15.580Z,21.99
2023-05-06T06:05:18.373Z,22.05
2023-05-06T06:08:21.239Z,22.11
2023-05-06T06:11:25.449Z,22.10
2023-05-06T06:14:28.192Z,22.18
2023-05-06T06:17:32.398Z,22.09
2023-05-06T06:20:35.320Z,22.09
2023-05-06T06:23:38.087Z,22.08
2023-05-06T06:26:41.179Z,22.06
2023-05-06T06:29:44.020Z,22.19
2023-05-06T06:32:51.634Z,22.16
2023-05-06T06:35:54.877Z,22.16
2023-05-06T06:38:57.596Z,22.19
2023-05-06T06:42:00.444Z,22.18
2023-05-06T06:45:03.273Z,22.15
2023-05-06T06:48:07.626Z,22.19
2023-05-06T06:51:10.432Z,22.20
2023-05-06T06:54:13.185Z,22.22
2023-05-06T06:57:16.013Z,22.21
2023-05-06T07:00:18.896Z,22.12
2023-05-06T07:03:23.059Z,22.10
2023-05-06T07:06:25.842Z,22.23
2023-05-06T07:09:28.594Z,22.15
2023-05-06T07:12:31.353Z,22.10
2023-05-06T07:15:34.177Z,22.21
2023-05-06T07:18:38.311Z,22.25
2023-05-06T07:21:41.076Z,22.28
2023-05-06T07:24:43.840Z,22.24
2023-05-06T07:27:46.661Z,22.30
2023-05-06T07:30:51.439Z,22.36
2023-05-06T07:33:55.652Z,22.32
2023-05-06T07:36:58.595Z,22.37
2023-05-06T07:40:01.404Z,22.30
2023-05-06T07:43:04.264Z,22.33
2023-05-06T07:46:07.099Z,22.31
2023-05-06T07:49:11.303Z,22.24
2023-05-06T07:52:14.034Z,22.12
2023-05-06T07:55:16.909Z,22.19
2023-05-06T07:58:19.785Z,22.30
2023-05-06T08:01:22.526Z,22.28
2023-05-06T08:04:26.730Z,22.33
2023-05-06T08:07:29.528Z,22.39
2023-05-06T08:10:32.385Z,22.32
2023-05-06T08:13:35.224Z,22.34
2023-05-06T08:16:38.027Z,22.35
2023-05-06T08:19:42.268Z,22.41
2023-05-06T08:22:44.962Z,22.46
2023-05-06T08:25:47.767Z,22.36
2023-05-06T08:28:50.629Z,22.32
2023-05-06T08:31:53.500Z,22.38
2023-05-06T08:34:57.786Z,22.37
2023-05-06T08:38:00.580Z,22.31
2023-05-06T08:41:09.142Z,22.36
2023-05-06T08:44:16.208Z,22.33
2023-05-06T08:47:19.192Z,22.31
2023-05-06T08:50:23.528Z,22.33
2023-05-06T08:53:26.328Z,22.31
2023-05-06T08:56:30.976Z,22.34
2023-05-06T08:59:34.347Z,22.40
2023-05-06T09:02:37.228Z,22.41
2023-05-06T09:05:41.505Z,22.37
2023-05-06T09:08:44.296Z,22.44
2023-05-06T09:11:54.020Z,22.42
2023-05-06T09:14:57.187Z,22.53
2023-05-06T09:18:01.949Z,22.44
2023-05-06T09:21:06.701Z,22.46
2023-05-06T09:24:10.478Z,22.47
2023-05-06T09:27:14.640Z,22.59
2023-05-06T09:30:18.090Z,22.51
2023-05-06T09:33:21.752Z,22.48
2023-05-06T09:36:26.253Z,22.50
2023-05-06T09:39:28.991Z,22.52
2023-05-06T09:42:32.094Z,22.48
2023-05-06T09:45:34.930Z,22.55
2023-05-06T09:48:37.900Z,22.54
2023-05-06T09:51:47.873Z,22.61
2023-05-06T09:54:51.591Z,22.68
2023-05-06T09:57:54.830Z,22.68
2023-05-06T10:00:58.147Z,22.57
2023-05-06T10:04:02.101Z,22.64
2023-05-06T10:07:06.732Z,22.68
2023-05-06T10:10:10.292Z,22.65
2023-05-06T10:13:13.578Z,22.67
2023-05-06T10:16:16.640Z,22.68
2023-05-06T10:19:22.191Z,22.65
2023-05-06T10:22:32.270Z,22.66
2023-05-06T10:25:44.646Z,22.04
2023-05-06T10:29:39.378Z,21.48
2023-05-06T10:32:43.500Z,21.72
2023-05-06T10:35:51.942Z,21.73
2023-05-06T10:38:57.547Z,21.80
2023-05-06T10:42:01.963Z,22.00
2023-05-06T10:45:05.349Z,21.97
2023-05-06T10:48:09.747Z,21.85
2023-05-06T10:51:25.965Z,21.58
2023-05-06T10:54:30.131Z,21.54
2023-05-06T10:57:41.673Z,21.51
2023-05-06T11:00:53.981Z,21.86
2023-05-06T11:03:56.864Z,22.13
2023-05-06T11:07:08.396Z,21.88
2023-05-06T11:10:13.047Z,22.31
2023-05-06T11:13:23.061Z,22.62
2023-05-06T11:16:44.758Z,22.71
2023-05-06T11:19:47.644Z,22.78
2023-05-06T11:22:50.424Z,22.80
2023-05-06T11:25:56.548Z,22.79
2023-05-06T11:29:01.793Z,22.85
2023-05-06T11:32:04.811Z,22.85
2023-05-06T11:35:08.164Z,22.87
2023-05-06T11:38:11.078Z,22.90
2023-05-06T11:41:15.398Z,22.89
2023-05-06T11:44:31.149Z,22.87
2023-05-06T11:47:33.969Z,22.83
2023-05-06T11:50:36.977Z,22.86
2023-05-06T11:53:39.816Z,22.85
2023-05-06T11:56:48.608Z,22.79
2023-05-06T11:59:54.611Z,22.78
2023-05-06T12:02:57.484Z,22.80
2023-05-06T12:06:00.634Z,22.81
2023-05-06T12:09:05.226Z,22.87
2023-05-06T12:12:10.545Z,22.87
2023-05-06T12:15:22.561Z,22.87
2023-05-06T12:18:25.688Z,22.90
2023-05-06T12:21:28.528Z,22.94
2023-05-06T12:24:31.347Z,22.96
2023-05-06T12:27:36.733Z,22.70
2023-05-06T12:30:39.468Z,22.41
2023-05-06T12:33:46.581Z,22.31
2023-05-06T12:36:49.452Z,22.32
2023-05-06T12:39:52.264Z,22.32
2023-05-06T12:42:56.859Z,22.29
2023-05-06T12:46:07.297Z,22.31
2023-05-06T12:49:10.114Z,22.26
2023-05-06T12:52:13.384Z,22.24
2023-05-06T12:55:16.275Z,22.22
2023-05-06T12:58:21.213Z,22.18
2023-05-06T13:01:24.089Z,22.34
2023-05-06T13:04:27.225Z,22.02
2023-05-06T13:07:30.000Z,21.80
2023-05-06T13:10:32.847Z,21.66
2023-05-06T13:13:36.941Z,21.75
2023-05-06T13:16:39.737Z,21.65
2023-05-06T13:19:42.497Z,21.51
2023-05-06T13:22:54.248Z,21.38
2023-05-06T13:26:04.284Z,21.34
2023-05-06T13:29:09.224Z,21.58
2023-05-06T13:32:12.006Z,21.76
2023-05-06T13:35:14.752Z,21.43
2023-05-06T13:38:17.548Z,21.75
2023-05-06T13:41:21.442Z,21.69
2023-05-06T13:44:25.722Z,21.35
2023-05-06T13:47:28.598Z,20.95
2023-05-06T13:50:31.409Z,21.13
2023-05-06T13:53:35.082Z,21.15
2023-05-06T13:56:37.913Z,21.38
2023-05-06T13:59:42.087Z,21.24
2023-05-06T14:02:45.399Z,21.51
2023-05-06T14:05:48.398Z,21.59
2023-05-06T14:08:51.255Z,21.64
2023-05-06T14:11:54.062Z,21.39
2023-05-06T14:14:58.176Z,21.51
2023-05-06T14:18:01.035Z,21.36
2023-05-06T14:21:03.817Z,21.45
2023-05-06T14:24:07.727Z,21.59
2023-05-06T14:27:10.826Z,21.25
2023-05-06T14:30:15.520Z,21.45
2023-05-06T14:33:18.260Z,21.12
2023-05-06T14:36:21.053Z,21.08
2023-05-06T14:39:23.834Z,21.08
2023-05-06T14:42:26.805Z,20.77
2023-05-06T14:45:31.436Z,21.02
2023-05-06T14:48:34.206Z,21.08
2023-05-06T14:51:37.054Z,20.73
2023-05-06T14:54:42.468Z,20.99
2023-05-06T14:57:45.450Z,20.85
2023-05-06T15:00:49.608Z,20.77
2023-05-06T15:03:53.355Z,21.00
2023-05-06T15:06:57.872Z,20.56
2023-05-06T15:10:00.770Z,20.92
2023-05-06T15:13:03.778Z,20.61
2023-05-06T15:16:10.560Z,20.61
2023-05-06T15:19:14.103Z,20.56
2023-05-06T15:22:16.940Z,21.65
2023-05-06T15:25:33.544Z,22.01
2023-05-06T15:28:37.481Z,22.09
2023-05-06T15:31:41.923Z,22.12
2023-05-06T15:34:44.732Z,22.11
2023-05-06T15:37:47.499Z,22.08
2023-05-06T15:40:51.332Z,22.06
2023-05-06T15:43:54.395Z,22.08
2023-05-06T15:46:58.586Z,22.06
2023-05-06T15:50:10.906Z,22.12
2023-05-06T15:53:20.541Z,22.16
2023-05-06T15:56:24.176Z,21.94
2023-05-06T15:59:27.037Z,22.09
2023-05-06T16:02:31.505Z,22.04
2023-05-06T16:05:34.280Z,21.93
2023-05-06T16:08:37.097Z,21.94
2023-05-06T16:11:39.847Z,21.95
2023-05-06T16:14:42.612Z,21.94
2023-05-06T16:17:46.876Z,21.87
2023-05-06T16:20:49.957Z,21.86
2023-05-06T16:23:52.761Z,21.86
2023-05-06T16:26:56.150Z,21.85
2023-05-06T16:29:59.109Z,21.80
2023-05-06T16:33:04.112Z,21.73
2023-05-06T16:36:07.719Z,21.72
2023-05-06T16:39:10.725Z,21.66
2023-05-06T16:42:13.538Z,21.60
2023-05-06T16:45:16.448Z,21.56
2023-05-06T16:48:20.809Z,21.62
2023-05-06T16:51:23.698Z,21.60
2023-05-06T16:54:26.570Z,21.61
2023-05-06T16:57:29.328Z,21.56
2023-05-06T17:00:32.289Z,21.56
2023-05-06T17:03:37.969Z,21.55
2023-05-06T17:06:40.865Z,21.55
2023-05-06T17:09:43.606Z,21.54
2023-05-06T17:12:46.420Z,21.52
2023-05-06T17:15:49.321Z,21.55
2023-05-06T17:18:53.472Z,21.39
2023-05-06T17:21:58.091Z,19.30
2023-05-06T17:25:00.896Z,18.61
2023-05-06T17:28:03.681Z,18.75
2023-05-06T17:31:06.547Z,18.28
2023-05-06T17:34:11.795Z,18.18
2023-05-06T17:37:15.618Z,17.92
2023-05-06T17:40:18.527Z,18.08
2023-05-06T17:43:21.297Z,17.70
2023-05-06T17:46:24.203Z,18.02
2023-05-06T17:49:28.441Z,17.40
2023-05-06T17:52:31.317Z,17.46
2023-05-06T17:55:34.055Z,17.32
2023-05-06T17:58:38.828Z,17.40
2023-05-06T18:01:41.615Z,17.21
2023-05-06T18:04:47.551Z,17.40
2023-05-06T18:07:56.085Z,17.20
2023-05-06T18:10:58.887Z,17.19
2023-05-06T18:14:01.696Z,17.51
2023-05-06T18:17:05.459Z,17.19
2023-05-06T18:20:10.316Z,16.86
2023-05-06T18:23:13.074Z,18.31
2023-05-06T18:26:24.396Z,19.38
2023-05-06T18:29:38.021Z,19.63
2023-05-06T18:32:40.778Z,19.76
2023-05-06T18:35:44.965Z,19.74
2023-05-06T18:38:47.847Z,19.82
2023-05-06T18:41:50.591Z,19.77
2023-05-06T18:44:53.353Z,19.81
2023-05-06T18:47:56.238Z,19.89
2023-05-06T18:51:11.178Z,19.85
2023-05-06T18:54:14.982Z,19.90
2023-05-06T18:57:19.659Z,19.93
2023-05-06T19:00:22.930Z,19.93
2023-05-06T19:03:25.673Z,19.94
2023-05-06T19:06:31.637Z,19.87
2023-05-06T19:09:45.091Z,19.92
2023-05-06T19:12:47.902Z,19.85
2023-05-06T19:15:50.841Z,19.84
2023-05-06T19:18:53.624Z,19.89
2023-05-06T19:21:59.094Z,19.90
2023-05-06T19:25:01.872Z,19.40
2023-05-06T19:28:04.787Z,17.36
2023-05-06T19:31:07.754Z,16.98
2023-05-06T19:34:10.605Z,16.85
2023-05-06T19:37:14.820Z,16.42
2023-05-06T19:40:18.925Z,16.39
2023-05-06T19:43:23.654Z,16.29
2023-05-06T19:46:26.614Z,16.31
2023-05-06T19:49:30.531Z,16.32
2023-05-06T19:52:34.759Z,16.30
2023-05-06T19:55:37.781Z,16.32
2023-05-06T19:58:40.689Z,15.88
2023-05-06T20:01:43.559Z,16.06
2023-05-06T20:04:46.566Z,16.10
2023-05-06T20:07:51.322Z,15.99
2023-05-06T20:10:54.332Z,16.01
2023-05-06T20:13:57.061Z,15.99
2023-05-06T20:17:01.874Z,15.85
2023-05-06T20:20:09.603Z,16.23
2023-05-06T20:23:14.028Z,16.03
2023-05-06T20:26:16.867Z,15.52
2023-05-06T20:29:19.649Z,15.49
2023-05-06T20:32:22.472Z,15.00
2023-05-06T20:35:25.741Z,15.04
2023-05-06T20:38:30.928Z,15.21
2023-05-06T20:41:33.884Z,15.24
2023-05-06T20:44:36.646Z,15.10
2023-05-06T20:47:39.439Z,16.62
2023-05-06T20:50:42.266Z,18.23
2023-05-06T20:53:47.578Z,18.73
2023-05-06T20:56:50.362Z,18.72
2023-05-06T20:59:53.118Z,18.85
2023-05-06T21:02:56.198Z,18.97
2023-05-06T21:05:58.984Z,19.07
2023-05-06T21:09:03.169Z,19.13
2023-05-06T21:12:06.287Z,19.28
2023-05-06T21:15:09.909Z,19.23
2023-05-06T21:18:12.902Z,19.32
2023-05-06T21:21:15.778Z,19.20
2023-05-06T21:24:19.978Z,19.22
2023-05-06T21:27:22.692Z,19.25
2023-05-06T21:30:25.525Z,19.28
2023-05-06T21:33:28.293Z,19.30
2023-05-06T21:36:31.305Z,19.34
2023-05-06T21:39:35.875Z,19.32
2023-05-06T21:42:38.709Z,19.38
2023-05-06T21:45:41.501Z,19.36
2023-05-06T21:48:44.251Z,19.37
2023-05-06T21:51:47.084Z,19.39
2023-05-06T21:54:51.269Z,19.41
2023-05-06T21:57:54.076Z,19.42
2023-05-06T22:00:56.864Z,19.42
2023-05-06T22:04:00.588Z,19.41
2023-05-06T22:07:03.441Z,19.46
2023-05-06T22:10:08.230Z,19.45
2023-05-06T22:13:11.159Z,19.47
2023-05-06T22:16:13.994Z,19.47
2023-05-06T22:19:16.875Z,19.45
2023-05-06T22:22:19.648Z,19.47
2023-05-06T22:25:23.938Z,19.46
2023-05-06T22:28:26.724Z,19.50
2023-05-06T22:31:29.600Z,19.49
2023-05-06T22:34:32.542Z,19.50
2023-05-06T22:37:35.419Z,19.53
2023-05-06T22:40:39.590Z,19.52
2023-05-06T22:43:42.297Z,19.52
2023-05-06T22:46:45.108Z,19.58
2023-05-06T22:49:47.873Z,19.57
2023-05-06T22:52:50.692Z,19.66
2023-05-06T22:55:54.845Z,19.67
2023-05-06T22:58:57.705Z,19.64
2023-05-06T23:02:00.469Z,19.65
2023-05-06T23:05:03.280Z,19.58
2023-05-06T23:08:06.335Z,19.60
2023-05-06T23:11:10.617Z,19.60
2023-05-06T23:14:13.372Z,19.58
2023-05-06T23:17:16.279Z,19.62
2023-05-06T23:20:19.185Z,19.62
2023-05-06T23:23:22.042Z,19.62
2023-05-06T23:26:26.725Z,19.63
2023-05-06T23:29:29.560Z,19.64
2023-05-06T23:32:32.371Z,19.62
2023-05-06T23:35:35.181Z,19.65
2023-05-06T23:38:37.932Z,19.63
2023-05-06T23:41:42.077Z,19.64
2023-05-06T23:44:44.831Z,19.61
2023-05-06T23:47:47.697Z,19.65
2023-05-06T23:50:50.506Z,19.60
2023-05-06T23:53:53.268Z,19.60
2023-05-06T23:56:57.486Z,19.60
